Terminal Aerodrome Forecast
Issued by NWS

Home | Current Version | Previous Version | Text Only | Print | Product List | Glossary On
Versions: 1 2 3 4 5 6 7 8 9 10 11 12 13 14 15 16 17 18 19 20 21 22 23 24
942
FTUS43 KDLH 080540
TAFHIB
TAF
KHIB 080540Z 0806/0906 33014KT P6SM -SN BKN019 OVC035
     FM080800 33010KT 4SM -SN OVC020
     FM081600 32009KT P6SM VCSH OVC015
     FM082100 32008KT P6SM OVC015=

USA.gov is the U.S. government's official web portal to all federal, state and local government web resources and services.